sensor_id;sensor_type;location;lat;lon;timestamp;P1;durP1;ratioP1;P2;durP2;ratioP2
76073;SDS011;64776;42.636;24.358;2022-11-15T00:00:30;39.30;;;15.98;;
76073;SDS011;64776;42.636;24.358;2022-11-15T00:03:32;48.30;;;14.60;;
76073;SDS011;64776;42.636;24.358;2022-11-15T00:06:33;26.60;;;10.95;;
76073;SDS011;64776;42.636;24.358;2022-11-15T00:09:34;27.13;;;11.00;;
76073;SDS011;64776;42.636;24.358;2022-11-15T00:12:35;48.42;;;17.73;;
76073;SDS011;64776;42.636;24.358;2022-11-15T00:15:35;29.85;;;12.18;;
76073;SDS011;64776;42.636;24.358;2022-11-15T00:18:38;39.85;;;15.88;;
76073;SDS011;64776;42.636;24.358;2022-11-15T00:21:39;33.80;;;12.98;;
76073;SDS011;64776;42.636;24.358;2022-11-15T00:24:40;105.65;;;31.20;;
76073;SDS011;64776;42.636;24.358;2022-11-15T00:27:40;46.67;;;16.63;;
76073;SDS011;64776;42.636;24.358;2022-11-15T00:30:41;38.30;;;14.32;;
76073;SDS011;64776;42.636;24.358;2022-11-15T00:33:44;43.05;;;14.15;;
76073;SDS011;64776;42.636;24.358;2022-11-15T00:36:45;42.83;;;13.82;;
76073;SDS011;64776;42.636;24.358;2022-11-15T00:39:45;26.58;;;11.43;;
76073;SDS011;64776;42.636;24.358;2022-11-15T00:42:46;39.53;;;12.93;;
76073;SDS011;64776;42.636;24.358;2022-11-15T00:45:47;27.27;;;10.88;;
76073;SDS011;64776;42.636;24.358;2022-11-15T00:48:49;34.58;;;12.48;;
76073;SDS011;64776;42.636;24.358;2022-11-15T00:51:50;40.38;;;13.20;;
76073;SDS011;64776;42.636;24.358;2022-11-15T00:54:51;32.42;;;12.65;;
76073;SDS011;64776;42.636;24.358;2022-11-15T00:57:52;36.78;;;12.57;;
76073;SDS011;64776;42.636;24.358;2022-11-15T01:00:52;31.70;;;13.70;;
76073;SDS011;64776;42.636;24.358;2022-11-15T01:03:55;34.92;;;14.02;;
76073;SDS011;64776;42.636;24.358;2022-11-15T01:06:56;51.20;;;20.20;;
76073;SDS011;64776;42.636;24.358;2022-11-15T01:09:57;55.72;;;24.58;;
76073;SDS011;64776;42.636;24.358;2022-11-15T01:12:57;34.33;;;14.75;;
76073;SDS011;64776;42.636;24.358;2022-11-15T01:15:58;44.22;;;15.18;;
76073;SDS011;64776;42.636;24.358;2022-11-15T01:19:01;38.95;;;13.23;;
76073;SDS011;64776;42.636;24.358;2022-11-15T01:22:01;36.15;;;11.65;;
76073;SDS011;64776;42.636;24.358;2022-11-15T01:25:02;30.80;;;13.13;;
76073;SDS011;64776;42.636;24.358;2022-11-15T01:28:04;31.95;;;12.25;;
76073;SDS011;64776;42.636;24.358;2022-11-15T01:31:05;28.80;;;12.15;;
76073;SDS011;64776;42.636;24.358;2022-11-15T01:34:13;25.67;;;10.82;;
76073;SDS011;64776;42.636;24.358;2022-11-15T01:37:14;29.67;;;9.73;;
76073;SDS011;64776;42.636;24.358;2022-11-15T01:40:15;35.42;;;11.52;;
76073;SDS011;64776;42.636;24.358;2022-11-15T01:43:19;27.33;;;11.57;;
76073;SDS011;64776;42.636;24.358;2022-11-15T01:46:26;32.85;;;10.85;;
76073;SDS011;64776;42.636;24.358;2022-11-15T01:49:32;26.13;;;10.77;;
76073;SDS011;64776;42.636;24.358;2022-11-15T01:52:35;24.90;;;10.05;;
76073;SDS011;64776;42.636;24.358;2022-11-15T01:55:38;32.65;;;11.23;;
76073;SDS011;64776;42.636;24.358;2022-11-15T01:58:38;33.67;;;12.40;;
76073;SDS011;64776;42.636;24.358;2022-11-15T02:01:41;35.50;;;12.73;;
76073;SDS011;64776;42.636;24.358;2022-11-15T02:04:44;36.22;;;11.07;;
76073;SDS011;64776;42.636;24.358;2022-11-15T02:07:46;27.38;;;9.65;;
76073;SDS011;64776;42.636;24.358;2022-11-15T02:10:48;21.02;;;9.13;;
76073;SDS011;64776;42.636;24.358;2022-11-15T02:13:49;20.42;;;7.97;;
76073;SDS011;64776;42.636;24.358;2022-11-15T02:16:53;25.42;;;8.68;;
76073;SDS011;64776;42.636;24.358;2022-11-15T02:20:08;23.40;;;7.60;;
76073;SDS011;64776;42.636;24.358;2022-11-15T02:23:34;29.00;;;9.60;;
76073;SDS011;64776;42.636;24.358;2022-11-15T02:30:36;23.38;;;8.63;;
76073;SDS011;64776;42.636;24.358;2022-11-15T02:33:42;24.60;;;8.88;;
76073;SDS011;64776;42.636;24.358;2022-11-15T02:36:54;20.45;;;8.52;;
76073;SDS011;64776;42.636;24.358;2022-11-15T02:40:05;29.85;;;10.73;;
76073;SDS011;64776;42.636;24.358;2022-11-15T02:43:13;27.27;;;9.05;;
76073;SDS011;64776;42.636;24.358;2022-11-15T02:46:22;27.80;;;9.50;;
76073;SDS011;64776;42.636;24.358;2022-11-15T02:49:28;25.60;;;10.23;;
76073;SDS011;64776;42.636;24.358;2022-11-15T02:52:31;26.00;;;9.77;;
76073;SDS011;64776;42.636;24.358;2022-11-15T02:55:33;24.73;;;9.43;;
76073;SDS011;64776;42.636;24.358;2022-11-15T03:02:13;25.92;;;8.30;;
76073;SDS011;64776;42.636;24.358;2022-11-15T03:05:25;21.27;;;6.95;;
76073;SDS011;64776;42.636;24.358;2022-11-15T03:08:36;23.23;;;8.13;;
76073;SDS011;64776;42.636;24.358;2022-11-15T03:11:46;28.83;;;8.40;;
76073;SDS011;64776;42.636;24.358;2022-11-15T03:14:54;28.55;;;8.60;;
76073;SDS011;64776;42.636;24.358;2022-11-15T03:18:02;25.38;;;8.40;;
76073;SDS011;64776;42.636;24.358;2022-11-15T03:21:09;25.85;;;9.07;;
76073;SDS011;64776;42.636;24.358;2022-11-15T03:24:13;25.85;;;8.98;;
76073;SDS011;64776;42.636;24.358;2022-11-15T03:27:17;26.80;;;7.82;;
76073;SDS011;64776;42.636;24.358;2022-11-15T03:30:21;23.83;;;10.00;;
76073;SDS011;64776;42.636;24.358;2022-11-15T03:33:24;28.02;;;9.32;;
76073;SDS011;64776;42.636;24.358;2022-11-15T03:36:25;30.20;;;10.50;;
76073;SDS011;64776;42.636;24.358;2022-11-15T03:39:27;24.88;;;9.70;;
76073;SDS011;64776;42.636;24.358;2022-11-15T03:42:30;25.40;;;8.55;;
76073;SDS011;64776;42.636;24.358;2022-11-15T03:45:39;21.15;;;9.63;;
76073;SDS011;64776;42.636;24.358;2022-11-15T03:48:47;22.90;;;9.55;;
76073;SDS011;64776;42.636;24.358;2022-11-15T03:51:52;21.40;;;8.48;;
76073;SDS011;64776;42.636;24.358;2022-11-15T03:54:53;18.20;;;7.45;;
76073;SDS011;64776;42.636;24.358;2022-11-15T03:57:56;24.15;;;8.95;;
76073;SDS011;64776;42.636;24.358;2022-11-15T04:00:59;18.05;;;6.90;;
76073;SDS011;64776;42.636;24.358;2022-11-15T04:04:01;22.50;;;8.48;;
76073;SDS011;64776;42.636;24.358;2022-11-15T04:07:02;18.17;;;7.45;;
76073;SDS011;64776;42.636;24.358;2022-11-15T04:10:03;21.00;;;8.43;;
76073;SDS011;64776;42.636;24.358;2022-11-15T04:13:04;29.88;;;11.27;;
76073;SDS011;64776;42.636;24.358;2022-11-15T04:16:05;32.58;;;12.50;;
76073;SDS011;64776;42.636;24.358;2022-11-15T04:19:07;24.33;;;10.60;;
76073;SDS011;64776;42.636;24.358;2022-11-15T04:22:08;30.77;;;11.80;;
76073;SDS011;64776;42.636;24.358;2022-11-15T04:25:09;31.08;;;10.07;;
76073;SDS011;64776;42.636;24.358;2022-11-15T04:28:10;45.17;;;14.18;;
76073;SDS011;64776;42.636;24.358;2022-11-15T04:31:11;28.90;;;9.68;;
76073;SDS011;64776;42.636;24.358;2022-11-15T04:34:13;23.83;;;8.80;;
76073;SDS011;64776;42.636;24.358;2022-11-15T04:37:14;25.05;;;10.20;;
76073;SDS011;64776;42.636;24.358;2022-11-15T04:40:15;35.67;;;11.57;;
76073;SDS011;64776;42.636;24.358;2022-11-15T04:43:16;39.42;;;17.20;;
76073;SDS011;64776;42.636;24.358;2022-11-15T04:46:16;38.92;;;15.15;;
76073;SDS011;64776;42.636;24.358;2022-11-15T04:49:19;39.05;;;17.45;;
76073;SDS011;64776;42.636;24.358;2022-11-15T04:52:19;39.40;;;16.48;;
76073;SDS011;64776;42.636;24.358;2022-11-15T04:55:20;38.10;;;13.00;;
76073;SDS011;64776;42.636;24.358;2022-11-15T04:58:21;36.35;;;13.18;;
76073;SDS011;64776;42.636;24.358;2022-11-15T05:01:22;37.17;;;12.93;;
76073;SDS011;64776;42.636;24.358;2022-11-15T05:04:24;34.08;;;12.88;;
76073;SDS011;64776;42.636;24.358;2022-11-15T05:07:25;41.92;;;14.52;;
76073;SDS011;64776;42.636;24.358;2022-11-15T05:10:26;34.40;;;13.30;;
76073;SDS011;64776;42.636;24.358;2022-11-15T05:13:27;35.75;;;11.40;;
76073;SDS011;64776;42.636;24.358;2022-11-15T05:16:28;34.90;;;11.45;;
76073;SDS011;64776;42.636;24.358;2022-11-15T05:19:30;28.35;;;10.98;;
76073;SDS011;64776;42.636;24.358;2022-11-15T05:22:30;30.40;;;10.48;;
76073;SDS011;64776;42.636;24.358;2022-11-15T05:25:31;24.42;;;10.50;;
76073;SDS011;64776;42.636;24.358;2022-11-15T05:28:32;28.98;;;10.63;;
76073;SDS011;64776;42.636;24.358;2022-11-15T05:31:34;32.92;;;11.23;;
76073;SDS011;64776;42.636;24.358;2022-11-15T05:34:41;22.23;;;10.30;;
76073;SDS011;64776;42.636;24.358;2022-11-15T05:37:42;42.85;;;16.25;;
76073;SDS011;64776;42.636;24.358;2022-11-15T05:40:43;35.13;;;13.25;;
76073;SDS011;64776;42.636;24.358;2022-11-15T05:43:44;25.60;;;10.60;;
76073;SDS011;64776;42.636;24.358;2022-11-15T05:46:46;37.15;;;17.15;;
76073;SDS011;64776;42.636;24.358;2022-11-15T05:49:51;40.65;;;17.58;;
76073;SDS011;64776;42.636;24.358;2022-11-15T05:52:53;35.55;;;16.23;;
76073;SDS011;64776;42.636;24.358;2022-11-15T05:55:55;34.95;;;13.88;;
76073;SDS011;64776;42.636;24.358;2022-11-15T05:58:56;27.42;;;12.43;;
76073;SDS011;64776;42.636;24.358;2022-11-15T06:01:58;30.95;;;12.02;;
76073;SDS011;64776;42.636;24.358;2022-11-15T06:05:00;35.30;;;13.45;;
76073;SDS011;64776;42.636;24.358;2022-11-15T06:08:01;38.53;;;14.13;;
76073;SDS011;64776;42.636;24.358;2022-11-15T06:11:03;38.13;;;15.10;;
76073;SDS011;64776;42.636;24.358;2022-11-15T06:14:04;52.33;;;19.80;;
76073;SDS011;64776;42.636;24.358;2022-11-15T06:17:05;51.53;;;23.00;;
76073;SDS011;64776;42.636;24.358;2022-11-15T06:20:08;71.25;;;31.25;;
76073;SDS011;64776;42.636;24.358;2022-11-15T06:23:09;46.70;;;20.85;;
76073;SDS011;64776;42.636;24.358;2022-11-15T06:26:10;31.67;;;11.90;;
76073;SDS011;64776;42.636;24.358;2022-11-15T06:29:11;35.20;;;15.10;;
76073;SDS011;64776;42.636;24.358;2022-11-15T06:32:12;52.38;;;18.67;;
76073;SDS011;64776;42.636;24.358;2022-11-15T06:35:14;75.70;;;35.85;;
76073;SDS011;64776;42.636;24.358;2022-11-15T06:38:15;66.30;;;31.08;;
76073;SDS011;64776;42.636;24.358;2022-11-15T06:41:16;25.50;;;12.48;;
76073;SDS011;64776;42.636;24.358;2022-11-15T06:44:16;23.67;;;10.15;;
76073;SDS011;64776;42.636;24.358;2022-11-15T06:47:17;23.00;;;9.40;;
76073;SDS011;64776;42.636;24.358;2022-11-15T06:50:19;27.60;;;12.43;;
76073;SDS011;64776;42.636;24.358;2022-11-15T06:53:20;32.00;;;15.70;;
76073;SDS011;64776;42.636;24.358;2022-11-15T06:56:21;23.40;;;10.90;;
76073;SDS011;64776;42.636;24.358;2022-11-15T06:59:22;31.85;;;9.80;;
76073;SDS011;64776;42.636;24.358;2022-11-15T07:02:23;45.58;;;23.27;;
76073;SDS011;64776;42.636;24.358;2022-11-15T07:05:25;199.73;;;118.93;;
76073;SDS011;64776;42.636;24.358;2022-11-15T07:08:27;83.78;;;32.03;;
76073;SDS011;64776;42.636;24.358;2022-11-15T07:11:28;45.45;;;19.23;;
76073;SDS011;64776;42.636;24.358;2022-11-15T07:14:29;47.58;;;19.63;;
76073;SDS011;64776;42.636;24.358;2022-11-15T07:17:30;56.90;;;22.65;;
76073;SDS011;64776;42.636;24.358;2022-11-15T07:20:32;65.88;;;25.88;;
76073;SDS011;64776;42.636;24.358;2022-11-15T07:23:33;85.20;;;32.00;;
76073;SDS011;64776;42.636;24.358;2022-11-15T07:26:36;84.30;;;38.17;;
76073;SDS011;64776;42.636;24.358;2022-11-15T07:29:36;82.38;;;34.60;;
76073;SDS011;64776;42.636;24.358;2022-11-15T07:32:37;95.43;;;38.13;;
76073;SDS011;64776;42.636;24.358;2022-11-15T07:35:39;85.28;;;34.63;;
76073;SDS011;64776;42.636;24.358;2022-11-15T07:38:40;62.88;;;27.85;;
76073;SDS011;64776;42.636;24.358;2022-11-15T07:41:41;47.72;;;22.52;;
76073;SDS011;64776;42.636;24.358;2022-11-15T07:44:42;68.13;;;29.00;;
76073;SDS011;64776;42.636;24.358;2022-11-15T07:47:44;66.53;;;28.13;;
76073;SDS011;64776;42.636;24.358;2022-11-15T07:50:47;76.03;;;32.78;;
76073;SDS011;64776;42.636;24.358;2022-11-15T07:53:48;78.55;;;31.33;;
76073;SDS011;64776;42.636;24.358;2022-11-15T07:56:48;95.25;;;33.13;;
76073;SDS011;64776;42.636;24.358;2022-11-15T07:59:49;98.35;;;35.65;;
76073;SDS011;64776;42.636;24.358;2022-11-15T08:02:50;107.03;;;42.00;;
76073;SDS011;64776;42.636;24.358;2022-11-15T08:05:52;102.55;;;43.17;;
76073;SDS011;64776;42.636;24.358;2022-11-15T08:08:53;74.13;;;30.95;;
76073;SDS011;64776;42.636;24.358;2022-11-15T08:11:54;78.88;;;33.65;;
76073;SDS011;64776;42.636;24.358;2022-11-15T08:14:54;44.95;;;22.65;;
76073;SDS011;64776;42.636;24.358;2022-11-15T08:17:56;43.95;;;19.92;;
76073;SDS011;64776;42.636;24.358;2022-11-15T08:20:59;43.70;;;19.75;;
76073;SDS011;64776;42.636;24.358;2022-11-15T08:24:01;42.72;;;21.88;;
76073;SDS011;64776;42.636;24.358;2022-11-15T08:27:02;38.00;;;14.10;;
76073;SDS011;64776;42.636;24.358;2022-11-15T08:30:03;44.22;;;21.02;;
76073;SDS011;64776;42.636;24.358;2022-11-15T08:33:04;33.58;;;15.77;;
76073;SDS011;64776;42.636;24.358;2022-11-15T08:36:15;56.75;;;21.45;;
76073;SDS011;64776;42.636;24.358;2022-11-15T08:39:16;53.25;;;22.30;;
76073;SDS011;64776;42.636;24.358;2022-11-15T08:42:17;56.50;;;24.35;;
76073;SDS011;64776;42.636;24.358;2022-11-15T08:45:18;71.70;;;26.27;;
76073;SDS011;64776;42.636;24.358;2022-11-15T08:48:19;50.17;;;21.10;;
76073;SDS011;64776;42.636;24.358;2022-11-15T08:51:21;66.93;;;26.83;;
76073;SDS011;64776;42.636;24.358;2022-11-15T08:54:22;61.22;;;25.85;;
76073;SDS011;64776;42.636;24.358;2022-11-15T08:57:23;48.15;;;20.13;;
76073;SDS011;64776;42.636;24.358;2022-11-15T09:00:23;38.42;;;16.33;;
76073;SDS011;64776;42.636;24.358;2022-11-15T09:03:24;49.47;;;19.85;;
76073;SDS011;64776;42.636;24.358;2022-11-15T09:06:27;33.30;;;15.70;;
76073;SDS011;64776;42.636;24.358;2022-11-15T09:09:27;43.65;;;20.27;;
76073;SDS011;64776;42.636;24.358;2022-11-15T09:12:28;40.05;;;17.48;;
76073;SDS011;64776;42.636;24.358;2022-11-15T09:15:29;48.00;;;20.40;;
76073;SDS011;64776;42.636;24.358;2022-11-15T09:18:30;35.08;;;15.93;;
76073;SDS011;64776;42.636;24.358;2022-11-15T09:21:33;34.85;;;16.35;;
76073;SDS011;64776;42.636;24.358;2022-11-15T09:24:33;47.65;;;21.33;;
76073;SDS011;64776;42.636;24.358;2022-11-15T09:27:34;44.17;;;19.10;;
76073;SDS011;64776;42.636;24.358;2022-11-15T09:30:35;35.03;;;15.30;;
76073;SDS011;64776;42.636;24.358;2022-11-15T09:33:36;34.30;;;15.85;;
76073;SDS011;64776;42.636;24.358;2022-11-15T09:36:38;41.30;;;18.38;;
76073;SDS011;64776;42.636;24.358;2022-11-15T09:39:39;27.70;;;13.27;;
76073;SDS011;64776;42.636;24.358;2022-11-15T09:42:45;32.15;;;13.40;;
76073;SDS011;64776;42.636;24.358;2022-11-15T09:45:57;32.75;;;15.18;;
76073;SDS011;64776;42.636;24.358;2022-11-15T09:49:15;49.70;;;21.60;;
76073;SDS011;64776;42.636;24.358;2022-11-15T09:52:18;30.35;;;15.15;;
76073;SDS011;64776;42.636;24.358;2022-11-15T09:55:21;36.42;;;18.73;;
76073;SDS011;64776;42.636;24.358;2022-11-15T09:58:36;31.95;;;15.10;;
76073;SDS011;64776;42.636;24.358;2022-11-15T10:01:45;39.72;;;18.38;;
76073;SDS011;64776;42.636;24.358;2022-11-15T10:04:53;46.67;;;22.83;;
76073;SDS011;64776;42.636;24.358;2022-11-15T10:07:57;39.25;;;17.73;;
76073;SDS011;64776;42.636;24.358;2022-11-15T10:11:08;37.92;;;16.92;;
76073;SDS011;64776;42.636;24.358;2022-11-15T10:14:12;23.83;;;12.98;;
76073;SDS011;64776;42.636;24.358;2022-11-15T10:17:21;54.70;;;21.48;;
76073;SDS011;64776;42.636;24.358;2022-11-15T10:20:41;40.20;;;19.25;;
76073;SDS011;64776;42.636;24.358;2022-11-15T10:23:47;46.33;;;22.75;;
76073;SDS011;64776;42.636;24.358;2022-11-15T10:26:49;68.85;;;29.52;;
76073;SDS011;64776;42.636;24.358;2022-11-15T10:29:50;70.47;;;28.77;;
76073;SDS011;64776;42.636;24.358;2022-11-15T10:32:51;117.28;;;46.05;;
76073;SDS011;64776;42.636;24.358;2022-11-15T10:39:16;63.92;;;27.90;;
76073;SDS011;64776;42.636;24.358;2022-11-15T10:42:17;72.75;;;31.98;;
76073;SDS011;64776;42.636;24.358;2022-11-15T10:45:27;32.03;;;16.70;;
76073;SDS011;64776;42.636;24.358;2022-11-15T10:48:29;90.45;;;43.15;;
76073;SDS011;64776;42.636;24.358;2022-11-15T10:51:30;29.65;;;13.45;;
76073;SDS011;64776;42.636;24.358;2022-11-15T10:54:35;31.15;;;14.10;;
76073;SDS011;64776;42.636;24.358;2022-11-15T10:57:38;23.55;;;11.73;;
76073;SDS011;64776;42.636;24.358;2022-11-15T11:00:40;26.80;;;13.23;;
76073;SDS011;64776;42.636;24.358;2022-11-15T11:03:41;26.63;;;14.82;;
76073;SDS011;64776;42.636;24.358;2022-11-15T11:06:46;29.63;;;14.55;;
76073;SDS011;64776;42.636;24.358;2022-11-15T11:09:56;27.52;;;14.65;;
76073;SDS011;64776;42.636;24.358;2022-11-15T11:13:10;25.00;;;13.40;;
76073;SDS011;64776;42.636;24.358;2022-11-15T11:16:19;23.40;;;13.73;;
76073;SDS011;64776;42.636;24.358;2022-11-15T11:23:05;27.98;;;16.20;;
76073;SDS011;64776;42.636;24.358;2022-11-15T11:26:29;17.17;;;9.27;;
76073;SDS011;64776;42.636;24.358;2022-11-15T11:29:41;17.52;;;9.43;;
76073;SDS011;64776;42.636;24.358;2022-11-15T11:32:58;13.90;;;6.82;;
76073;SDS011;64776;42.636;24.358;2022-11-15T11:36:11;12.00;;;6.28;;
76073;SDS011;64776;42.636;24.358;2022-11-15T11:39:24;14.98;;;7.63;;
76073;SDS011;64776;42.636;24.358;2022-11-15T11:42:37;12.80;;;6.22;;
76073;SDS011;64776;42.636;24.358;2022-11-15T11:45:49;199.65;;;84.10;;
76073;SDS011;64776;42.636;24.358;2022-11-15T11:49:01;21.35;;;10.60;;
76073;SDS011;64776;42.636;24.358;2022-11-15T11:52:09;12.32;;;7.82;;
76073;SDS011;64776;42.636;24.358;2022-11-15T11:55:15;23.77;;;10.98;;
76073;SDS011;64776;42.636;24.358;2022-11-15T11:58:23;30.45;;;15.05;;
76073;SDS011;64776;42.636;24.358;2022-11-15T12:01:34;62.13;;;27.23;;
76073;SDS011;64776;42.636;24.358;2022-11-15T12:04:40;29.98;;;14.90;;
76073;SDS011;64776;42.636;24.358;2022-11-15T12:07:46;31.98;;;15.95;;
76073;SDS011;64776;42.636;24.358;2022-11-15T12:10:53;77.10;;;33.70;;
76073;SDS011;64776;42.636;24.358;2022-11-15T12:14:03;33.35;;;17.20;;
76073;SDS011;64776;42.636;24.358;2022-11-15T12:17:25;28.23;;;13.63;;
76073;SDS011;64776;42.636;24.358;2022-11-15T12:20:30;25.35;;;13.35;;
76073;SDS011;64776;42.636;24.358;2022-11-15T12:23:37;23.52;;;11.15;;
76073;SDS011;64776;42.636;24.358;2022-11-15T12:26:45;24.15;;;11.68;;
76073;SDS011;64776;42.636;24.358;2022-11-15T12:29:51;23.55;;;11.20;;
76073;SDS011;64776;42.636;24.358;2022-11-15T12:32:55;21.30;;;11.55;;
76073;SDS011;64776;42.636;24.358;2022-11-15T12:35:58;26.27;;;12.15;;
76073;SDS011;64776;42.636;24.358;2022-11-15T12:39:01;22.00;;;12.00;;
76073;SDS011;64776;42.636;24.358;2022-11-15T12:45:42;26.27;;;11.20;;
76073;SDS011;64776;42.636;24.358;2022-11-15T12:48:47;31.35;;;15.75;;
76073;SDS011;64776;42.636;24.358;2022-11-15T12:58:39;58.72;;;25.20;;
76073;SDS011;64776;42.636;24.358;2022-11-15T13:01:57;30.73;;;14.77;;
76073;SDS011;64776;42.636;24.358;2022-11-15T13:08:43;29.35;;;14.05;;
76073;SDS011;64776;42.636;24.358;2022-11-15T13:11:51;43.25;;;18.95;;
76073;SDS011;64776;42.636;24.358;2022-11-15T13:14:53;102.00;;;43.67;;
76073;SDS011;64776;42.636;24.358;2022-11-15T13:17:57;39.70;;;20.00;;
76073;SDS011;64776;42.636;24.358;2022-11-15T13:20:58;29.85;;;15.38;;
76073;SDS011;64776;42.636;24.358;2022-11-15T13:23:59;33.20;;;15.63;;
76073;SDS011;64776;42.636;24.358;2022-11-15T13:27:00;60.45;;;29.90;;
76073;SDS011;64776;42.636;24.358;2022-11-15T13:30:00;36.88;;;15.13;;
76073;SDS011;64776;42.636;24.358;2022-11-15T13:33:07;41.85;;;19.27;;
76073;SDS011;64776;42.636;24.358;2022-11-15T13:36:12;37.28;;;17.50;;
76073;SDS011;64776;42.636;24.358;2022-11-15T13:42:32;42.73;;;19.25;;
76073;SDS011;64776;42.636;24.358;2022-11-15T13:45:33;41.90;;;24.42;;
76073;SDS011;64776;42.636;24.358;2022-11-15T13:48:35;40.70;;;22.65;;
76073;SDS011;64776;42.636;24.358;2022-11-15T13:51:37;42.72;;;22.20;;
76073;SDS011;64776;42.636;24.358;2022-11-15T13:54:42;45.00;;;24.65;;
76073;SDS011;64776;42.636;24.358;2022-11-15T13:57:46;41.63;;;22.42;;
76073;SDS011;64776;42.636;24.358;2022-11-15T14:00:49;30.15;;;16.90;;
76073;SDS011;64776;42.636;24.358;2022-11-15T14:04:01;37.05;;;19.60;;
76073;SDS011;64776;42.636;24.358;2022-11-15T14:07:03;30.92;;;17.00;;
76073;SDS011;64776;42.636;24.358;2022-11-15T14:10:16;32.80;;;18.17;;
76073;SDS011;64776;42.636;24.358;2022-11-15T14:13:26;45.45;;;21.58;;
76073;SDS011;64776;42.636;24.358;2022-11-15T14:16:32;62.85;;;31.55;;
76073;SDS011;64776;42.636;24.358;2022-11-15T14:19:39;64.45;;;33.15;;
76073;SDS011;64776;42.636;24.358;2022-11-15T14:22:40;52.78;;;28.17;;
76073;SDS011;64776;42.636;24.358;2022-11-15T14:28:52;40.38;;;20.65;;
76073;SDS011;64776;42.636;24.358;2022-11-15T14:31:53;49.30;;;24.90;;
76073;SDS011;64776;42.636;24.358;2022-11-15T14:35:11;62.22;;;31.95;;
76073;SDS011;64776;42.636;24.358;2022-11-15T14:38:14;68.50;;;34.90;;
76073;SDS011;64776;42.636;24.358;2022-11-15T14:41:19;61.47;;;29.13;;
76073;SDS011;64776;42.636;24.358;2022-11-15T14:44:22;84.30;;;38.70;;
76073;SDS011;64776;42.636;24.358;2022-11-15T14:47:23;286.42;;;114.78;;
76073;SDS011;64776;42.636;24.358;2022-11-15T14:50:25;210.50;;;85.75;;
76073;SDS011;64776;42.636;24.358;2022-11-15T14:53:26;137.63;;;59.72;;
76073;SDS011;64776;42.636;24.358;2022-11-15T14:56:27;100.90;;;43.22;;
76073;SDS011;64776;42.636;24.358;2022-11-15T14:59:28;77.00;;;39.58;;
76073;SDS011;64776;42.636;24.358;2022-11-15T15:02:29;74.38;;;39.00;;
76073;SDS011;64776;42.636;24.358;2022-11-15T15:05:32;85.13;;;45.30;;
76073;SDS011;64776;42.636;24.358;2022-11-15T15:08:34;98.38;;;49.40;;
76073;SDS011;64776;42.636;24.358;2022-11-15T15:11:35;80.15;;;40.30;;
76073;SDS011;64776;42.636;24.358;2022-11-15T15:14:35;76.70;;;40.28;;
76073;SDS011;64776;42.636;24.358;2022-11-15T15:17:36;70.88;;;35.28;;
76073;SDS011;64776;42.636;24.358;2022-11-15T15:20:39;58.58;;;29.42;;
76073;SDS011;64776;42.636;24.358;2022-11-15T15:23:40;63.92;;;34.03;;
76073;SDS011;64776;42.636;24.358;2022-11-15T15:26:41;62.20;;;33.30;;
76073;SDS011;64776;42.636;24.358;2022-11-15T15:29:42;78.40;;;33.38;;
76073;SDS011;64776;42.636;24.358;2022-11-15T15:32:43;49.03;;;25.35;;
76073;SDS011;64776;42.636;24.358;2022-11-15T15:35:45;50.33;;;25.15;;
76073;SDS011;64776;42.636;24.358;2022-11-15T15:38:46;41.22;;;20.95;;
76073;SDS011;64776;42.636;24.358;2022-11-15T15:41:47;60.08;;;30.33;;
76073;SDS011;64776;42.636;24.358;2022-11-15T15:44:48;76.15;;;33.90;;
76073;SDS011;64776;42.636;24.358;2022-11-15T15:47:49;243.02;;;99.25;;
76073;SDS011;64776;42.636;24.358;2022-11-15T15:50:51;115.38;;;58.55;;
76073;SDS011;64776;42.636;24.358;2022-11-15T15:53:52;123.57;;;56.88;;
76073;SDS011;64776;42.636;24.358;2022-11-15T15:56:53;136.23;;;58.83;;
76073;SDS011;64776;42.636;24.358;2022-11-15T15:59:54;114.93;;;51.20;;
76073;SDS011;64776;42.636;24.358;2022-11-15T16:02:54;122.30;;;58.55;;
76073;SDS011;64776;42.636;24.358;2022-11-15T16:05:57;101.97;;;50.80;;
76073;SDS011;64776;42.636;24.358;2022-11-15T16:08:57;117.53;;;54.70;;
76073;SDS011;64776;42.636;24.358;2022-11-15T16:11:58;130.77;;;53.97;;
76073;SDS011;64776;42.636;24.358;2022-11-15T16:14:59;247.82;;;105.93;;
76073;SDS011;64776;42.636;24.358;2022-11-15T16:18:01;164.02;;;70.60;;
76073;SDS011;64776;42.636;24.358;2022-11-15T16:21:07;140.23;;;66.25;;
76073;SDS011;64776;42.636;24.358;2022-11-15T16:24:08;145.93;;;66.53;;
76073;SDS011;64776;42.636;24.358;2022-11-15T16:27:10;126.53;;;56.42;;
76073;SDS011;64776;42.636;24.358;2022-11-15T16:30:14;131.40;;;61.03;;
76073;SDS011;64776;42.636;24.358;2022-11-15T16:33:16;95.50;;;45.38;;
76073;SDS011;64776;42.636;24.358;2022-11-15T16:36:22;90.57;;;43.15;;
76073;SDS011;64776;42.636;24.358;2022-11-15T16:39:24;261.88;;;105.45;;
76073;SDS011;64776;42.636;24.358;2022-11-15T16:42:24;251.25;;;101.63;;
76073;SDS011;64776;42.636;24.358;2022-11-15T16:45:25;256.48;;;101.72;;
76073;SDS011;64776;42.636;24.358;2022-11-15T16:48:26;214.30;;;100.57;;
76073;SDS011;64776;42.636;24.358;2022-11-15T16:51:29;146.65;;;74.57;;
76073;SDS011;64776;42.636;24.358;2022-11-15T16:54:30;173.68;;;81.03;;
76073;SDS011;64776;42.636;24.358;2022-11-15T16:57:30;159.23;;;75.85;;
76073;SDS011;64776;42.636;24.358;2022-11-15T17:00:31;148.65;;;68.88;;
76073;SDS011;64776;42.636;24.358;2022-11-15T17:03:32;93.10;;;46.90;;
76073;SDS011;64776;42.636;24.358;2022-11-15T17:06:34;85.03;;;43.67;;
76073;SDS011;64776;42.636;24.358;2022-11-15T17:09:35;94.00;;;44.67;;
76073;SDS011;64776;42.636;24.358;2022-11-15T17:12:36;102.70;;;43.50;;
76073;SDS011;64776;42.636;24.358;2022-11-15T17:15:37;129.15;;;64.53;;
76073;SDS011;64776;42.636;24.358;2022-11-15T17:18:38;123.15;;;59.40;;
76073;SDS011;64776;42.636;24.358;2022-11-15T17:21:41;133.20;;;68.78;;
76073;SDS011;64776;42.636;24.358;2022-11-15T17:24:42;379.17;;;145.98;;
76073;SDS011;64776;42.636;24.358;2022-11-15T17:27:42;261.33;;;103.97;;
76073;SDS011;64776;42.636;24.358;2022-11-15T17:30:43;208.98;;;88.13;;
76073;SDS011;64776;42.636;24.358;2022-11-15T17:33:44;195.70;;;87.18;;
76073;SDS011;64776;42.636;24.358;2022-11-15T17:36:46;187.75;;;77.43;;
76073;SDS011;64776;42.636;24.358;2022-11-15T17:39:47;150.68;;;68.88;;
76073;SDS011;64776;42.636;24.358;2022-11-15T17:42:48;141.70;;;65.43;;
76073;SDS011;64776;42.636;24.358;2022-11-15T17:45:49;136.70;;;64.72;;
76073;SDS011;64776;42.636;24.358;2022-11-15T17:48:50;225.00;;;91.80;;
76073;SDS011;64776;42.636;24.358;2022-11-15T17:51:52;147.65;;;69.43;;
76073;SDS011;64776;42.636;24.358;2022-11-15T17:54:53;134.30;;;65.90;;
76073;SDS011;64776;42.636;24.358;2022-11-15T17:57:54;110.93;;;50.97;;
76073;SDS011;64776;42.636;24.358;2022-11-15T18:00:54;103.90;;;55.70;;
76073;SDS011;64776;42.636;24.358;2022-11-15T18:04:05;101.72;;;48.45;;
76073;SDS011;64776;42.636;24.358;2022-11-15T18:07:09;109.30;;;47.72;;
76073;SDS011;64776;42.636;24.358;2022-11-15T18:10:10;113.57;;;47.38;;